sensor_id;sensor_type;location;lat;lon;timestamp;pressure;altitude;pressure_sealevel;temperature;humidity
22181;BME280;11256;50.830;12.834;2022-09-09T00:02:38;97272.00;;;16.53;62.54
22181;BME280;11256;50.830;12.834;2022-09-09T00:07:47;97270.53;;;16.56;63.10
22181;BME280;11256;50.830;12.834;2022-09-09T00:13:00;97262.78;;;16.58;62.29
22181;BME280;11256;50.830;12.834;2022-09-09T00:18:08;97259.72;;;16.59;62.65
22181;BME280;11256;50.830;12.834;2022-09-09T00:28:27;97242.41;;;16.47;62.61
22181;BME280;11256;50.830;12.834;2022-09-09T00:33:30;97227.63;;;16.39;62.66
22181;BME280;11256;50.830;12.834;2022-09-09T00:38:37;97228.94;;;16.25;63.09
22181;BME280;11256;50.830;12.834;2022-09-09T00:43:41;97241.59;;;16.38;62.87
22181;BME280;11256;50.830;12.834;2022-09-09T00:48:54;97241.13;;;16.36;62.26
22181;BME280;11256;50.830;12.834;2022-09-09T00:54:18;97226.06;;;16.21;62.10
22181;BME280;11256;50.830;12.834;2022-09-09T00:59:57;97247.41;;;16.28;61.97
22181;BME280;11256;50.830;12.834;2022-09-09T01:05:06;97237.50;;;16.15;62.53
22181;BME280;11256;50.830;12.834;2022-09-09T01:10:21;97247.81;;;16.18;62.63
22181;BME280;11256;50.830;12.834;2022-09-09T01:15:29;97255.66;;;16.19;62.58
22181;BME280;11256;50.830;12.834;2022-09-09T01:31:38;97249.91;;;16.04;62.72
22181;BME280;11256;50.830;12.834;2022-09-09T01:36:46;97246.06;;;15.96;63.22
22181;BME280;11256;50.830;12.834;2022-09-09T01:41:52;97241.09;;;15.90;63.35
22181;BME280;11256;50.830;12.834;2022-09-09T01:46:54;97231.47;;;15.84;63.34
22181;BME280;11256;50.830;12.834;2022-09-09T01:51:56;97236.94;;;15.84;63.46
22181;BME280;11256;50.830;12.834;2022-09-09T01:57:27;97241.09;;;15.90;63.25
22181;BME280;11256;50.830;12.834;2022-09-09T02:08:09;97230.53;;;15.80;63.32
22181;BME280;11256;50.830;12.834;2022-09-09T02:13:22;97227.97;;;15.75;63.35
22181;BME280;11256;50.830;12.834;2022-09-09T02:18:28;97234.06;;;15.72;63.64
22181;BME280;11256;50.830;12.834;2022-09-09T02:23:31;97238.75;;;15.71;63.49
22181;BME280;11256;50.830;12.834;2022-09-09T02:28:37;97242.13;;;15.60;63.46
22181;BME280;11256;50.830;12.834;2022-09-09T02:33:43;97240.84;;;15.49;63.89
22181;BME280;11256;50.830;12.834;2022-09-09T02:38:46;97237.47;;;15.52;63.61
22181;BME280;11256;50.830;12.834;2022-09-09T02:43:55;97242.59;;;15.53;63.36
22181;BME280;11256;50.830;12.834;2022-09-09T02:54:28;97228.97;;;15.45;63.68
22181;BME280;11256;50.830;12.834;2022-09-09T02:59:34;97216.13;;;15.37;63.50
22181;BME280;11256;50.830;12.834;2022-09-09T03:04:34;97205.97;;;15.29;63.72
22181;BME280;11256;50.830;12.834;2022-09-09T03:09:35;97216.28;;;15.40;63.47
22181;BME280;11256;50.830;12.834;2022-09-09T03:14:35;97225.59;;;15.39;63.61
22181;BME280;11256;50.830;12.834;2022-09-09T03:19:36;97230.09;;;15.35;63.77
22181;BME280;11256;50.830;12.834;2022-09-09T03:24:38;97225.59;;;15.31;63.70
22181;BME280;11256;50.830;12.834;2022-09-09T03:29:39;97233.97;;;15.34;63.82
22181;BME280;11256;50.830;12.834;2022-09-09T03:34:43;97231.84;;;15.23;64.02
22181;BME280;11256;50.830;12.834;2022-09-09T03:39:47;97233.44;;;15.24;64.01
22181;BME280;11256;50.830;12.834;2022-09-09T03:44:49;97238.25;;;15.27;64.06
22181;BME280;11256;50.830;12.834;2022-09-09T03:49:51;97213.69;;;15.18;64.15
22181;BME280;11256;50.830;12.834;2022-09-09T03:54:53;97229.56;;;15.25;64.20
22181;BME280;11256;50.830;12.834;2022-09-09T03:59:54;97241.47;;;15.29;64.23
22181;BME280;11256;50.830;12.834;2022-09-09T04:04:55;97230.69;;;15.24;64.28
22181;BME280;11256;50.830;12.834;2022-09-09T04:09:56;97228.13;;;15.19;64.11
22181;BME280;11256;50.830;12.834;2022-09-09T04:14:57;97220.59;;;15.16;64.20
22181;BME280;11256;50.830;12.834;2022-09-09T04:19:57;97212.09;;;15.09;64.84
22181;BME280;11256;50.830;12.834;2022-09-09T04:24:58;97219.47;;;15.08;64.59
22181;BME280;11256;50.830;12.834;2022-09-09T04:29:58;97211.44;;;15.03;64.72
22181;BME280;11256;50.830;12.834;2022-09-09T04:35:01;97227.97;;;15.07;64.70
22181;BME280;11256;50.830;12.834;2022-09-09T04:40:02;97232.28;;;15.08;64.70
22181;BME280;11256;50.830;12.834;2022-09-09T04:45:04;97229.72;;;15.03;64.68
22181;BME280;11256;50.830;12.834;2022-09-09T04:50:06;97232.44;;;15.03;64.71
22181;BME280;11256;50.830;12.834;2022-09-09T04:55:08;97227.66;;;15.00;65.33
22181;BME280;11256;50.830;12.834;2022-09-09T05:00:10;97229.91;;;14.98;65.47
22181;BME280;11256;50.830;12.834;2022-09-09T05:05:13;97243.56;;;14.98;65.45
22181;BME280;11256;50.830;12.834;2022-09-09T05:10:15;97239.03;;;15.02;65.72
22181;BME280;11256;50.830;12.834;2022-09-09T05:15:19;97233.09;;;15.00;65.90
22181;BME280;11256;50.830;12.834;2022-09-09T05:20:21;97240.97;;;15.01;66.14
22181;BME280;11256;50.830;12.834;2022-09-09T05:25:23;97238.72;;;15.03;66.18
22181;BME280;11256;50.830;12.834;2022-09-09T05:30:26;97237.91;;;15.03;65.84
22181;BME280;11256;50.830;12.834;2022-09-09T05:35:27;97237.28;;;15.06;65.92
22181;BME280;11256;50.830;12.834;2022-09-09T05:40:27;97243.88;;;15.05;65.79
22181;BME280;11256;50.830;12.834;2022-09-09T05:45:28;97249.03;;;15.06;65.86
22181;BME280;11256;50.830;12.834;2022-09-09T05:50:29;97261.38;;;15.12;66.28
22181;BME280;11256;50.830;12.834;2022-09-09T05:55:32;97256.56;;;15.18;66.74
22181;BME280;11256;50.830;12.834;2022-09-09T06:00:33;97263.97;;;15.26;66.69
22181;BME280;11256;50.830;12.834;2022-09-09T06:05:34;97261.06;;;15.31;66.66
22181;BME280;11256;50.830;12.834;2022-09-09T06:10:35;97269.47;;;15.43;66.30
22181;BME280;11256;50.830;12.834;2022-09-09T06:15:36;97270.75;;;15.54;66.58
22181;BME280;11256;50.830;12.834;2022-09-09T06:20:37;97262.53;;;15.62;66.88
22181;BME280;11256;50.830;12.834;2022-09-09T06:25:38;97272.63;;;15.79;66.86
22181;BME280;11256;50.830;12.834;2022-09-09T06:30:41;97265.38;;;15.91;67.08
22181;BME280;11256;50.830;12.834;2022-09-09T06:35:51;97273.56;;;16.00;66.63
22181;BME280;11256;50.830;12.834;2022-09-09T06:40:55;97277.09;;;16.09;67.73
22181;BME280;11256;50.830;12.834;2022-09-09T06:45:59;97265.47;;;16.12;66.92
22181;BME280;11256;50.830;12.834;2022-09-09T06:51:05;97275.13;;;16.18;66.69
22181;BME280;11256;50.830;12.834;2022-09-09T07:01:12;97269.97;;;16.25;67.92
22181;BME280;11256;50.830;12.834;2022-09-09T07:06:20;97270.94;;;16.29;68.00
22181;BME280;11256;50.830;12.834;2022-09-09T07:11:22;97271.38;;;16.39;68.30
22181;BME280;11256;50.830;12.834;2022-09-09T07:16:23;97273.75;;;16.49;68.69
22181;BME280;11256;50.830;12.834;2022-09-09T07:21:26;97268.25;;;16.58;68.67
22181;BME280;11256;50.830;12.834;2022-09-09T07:26:29;97279.47;;;16.65;68.16
22181;BME280;11256;50.830;12.834;2022-09-09T07:31:34;97272.53;;;16.67;68.27
22181;BME280;11256;50.830;12.834;2022-09-09T07:36:38;97281.81;;;16.83;67.79
22181;BME280;11256;50.830;12.834;2022-09-09T07:41:46;97290.72;;;17.01;67.95
22181;BME280;11256;50.830;12.834;2022-09-09T07:46:48;97292.22;;;17.19;67.75
22181;BME280;11256;50.830;12.834;2022-09-09T07:51:52;97285.22;;;17.30;67.17
22181;BME280;11256;50.830;12.834;2022-09-09T07:56:53;97298.41;;;17.57;67.68
22181;BME280;11256;50.830;12.834;2022-09-09T08:01:56;97304.09;;;17.93;67.77
22181;BME280;11256;50.830;12.834;2022-09-09T08:07:01;97304.88;;;18.26;68.09
22181;BME280;11256;50.830;12.834;2022-09-09T08:12:06;97302.44;;;18.45;67.00
22181;BME280;11256;50.830;12.834;2022-09-09T08:17:08;97304.97;;;18.62;67.13
22181;BME280;11256;50.830;12.834;2022-09-09T08:22:08;97304.31;;;18.89;68.10
22181;BME280;11256;50.830;12.834;2022-09-09T08:27:10;97294.22;;;19.05;67.71
22181;BME280;11256;50.830;12.834;2022-09-09T08:32:12;97291.94;;;19.19;68.03
22181;BME280;11256;50.830;12.834;2022-09-09T08:37:14;97298.59;;;19.30;66.85
22181;BME280;11256;50.830;12.834;2022-09-09T08:42:27;97309.53;;;19.54;67.04
22181;BME280;11256;50.830;12.834;2022-09-09T08:53:01;97316.06;;;20.87;71.23
22181;BME280;11256;50.830;12.834;2022-09-09T08:58:32;97319.13;;;22.20;66.00
22181;BME280;11256;50.830;12.834;2022-09-09T09:03:58;97308.22;;;23.36;59.79
22181;BME280;11256;50.830;12.834;2022-09-09T09:09:08;97303.84;;;24.16;58.62
22181;BME280;11256;50.830;12.834;2022-09-09T09:14:28;97300.13;;;24.71;54.95
22181;BME280;11256;50.830;12.834;2022-09-09T09:19:38;97305.84;;;25.36;53.62
22181;BME280;11256;50.830;12.834;2022-09-09T09:25:01;97306.63;;;25.33;52.72
22181;BME280;11256;50.830;12.834;2022-09-09T09:30:14;97294.75;;;25.36;52.18
22181;BME280;11256;50.830;12.834;2022-09-09T09:35:16;97296.75;;;24.92;51.46
22181;BME280;11256;50.830;12.834;2022-09-09T09:40:19;97304.66;;;24.90;51.92
22181;BME280;11256;50.830;12.834;2022-09-09T09:50:30;97295.38;;;25.69;50.89
22181;BME280;11256;50.830;12.834;2022-09-09T09:55:33;97293.25;;;26.13;49.37
22181;BME280;11256;50.830;12.834;2022-09-09T10:00:36;97287.84;;;26.59;49.81
22181;BME280;11256;50.830;12.834;2022-09-09T10:05:45;97287.47;;;26.85;50.47
22181;BME280;11256;50.830;12.834;2022-09-09T10:16:18;97291.06;;;26.96;48.69
22181;BME280;11256;50.830;12.834;2022-09-09T10:32:41;97293.06;;;27.09;47.25
22181;BME280;11256;50.830;12.834;2022-09-09T10:43:23;97275.63;;;27.26;46.46
22181;BME280;11256;50.830;12.834;2022-09-09T10:54:24;97275.97;;;27.39;46.25
22181;BME280;11256;50.830;12.834;2022-09-09T10:59:41;97276.38;;;27.27;46.00
22181;BME280;11256;50.830;12.834;2022-09-09T11:05:00;97276.38;;;27.13;47.37
22181;BME280;11256;50.830;12.834;2022-09-09T11:10:07;97265.22;;;27.62;43.97
22181;BME280;11256;50.830;12.834;2022-09-09T11:15:46;97266.06;;;27.24;46.51
22181;BME280;11256;50.830;12.834;2022-09-09T11:20:50;97271.63;;;27.24;46.16
22181;BME280;11256;50.830;12.834;2022-09-09T11:25:58;97273.94;;;27.64;44.45
22181;BME280;11256;50.830;12.834;2022-09-09T11:36:53;97269.22;;;27.43;45.60
22181;BME280;11256;50.830;12.834;2022-09-09T11:42:06;97272.38;;;27.49;45.52
22181;BME280;11256;50.830;12.834;2022-09-09T11:47:28;97261.97;;;27.77;44.49
22181;BME280;11256;50.830;12.834;2022-09-09T11:52:40;97273.88;;;28.02;44.95
22181;BME280;11256;50.830;12.834;2022-09-09T11:57:42;97265.34;;;28.41;44.58
22181;BME280;11256;50.830;12.834;2022-09-09T12:02:48;97264.13;;;28.42;44.26
22181;BME280;11256;50.830;12.834;2022-09-09T12:08:00;97272.09;;;28.43;44.56
22181;BME280;11256;50.830;12.834;2022-09-09T12:13:20;97260.16;;;28.39;43.80
22181;BME280;11256;50.830;12.834;2022-09-09T12:18:36;97241.38;;;29.08;41.12
22181;BME280;11256;50.830;12.834;2022-09-09T12:23:53;97236.53;;;29.60;40.08
22181;BME280;11256;50.830;12.834;2022-09-09T12:39:52;97234.91;;;29.96;37.81
22181;BME280;11256;50.830;12.834;2022-09-09T12:44:57;97235.56;;;30.07;36.97
22181;BME280;11256;50.830;12.834;2022-09-09T12:49:58;97226.72;;;30.42;37.01
22181;BME280;11256;50.830;12.834;2022-09-09T12:55:00;97230.00;;;30.67;36.88
22181;BME280;11256;50.830;12.834;2022-09-09T13:00:17;97218.91;;;30.86;36.76
22181;BME280;11256;50.830;12.834;2022-09-09T13:05:21;97211.31;;;30.57;37.88
22181;BME280;11256;50.830;12.834;2022-09-09T13:10:26;97210.94;;;30.55;38.77
22181;BME280;11256;50.830;12.834;2022-09-09T13:15:29;97211.31;;;31.33;37.22
22181;BME280;11256;50.830;12.834;2022-09-09T13:20:29;97216.75;;;31.20;37.18
22181;BME280;11256;50.830;12.834;2022-09-09T13:25:31;97222.47;;;30.87;37.23
22181;BME280;11256;50.830;12.834;2022-09-09T13:30:33;97220.00;;;30.66;38.01
22181;BME280;11256;50.830;12.834;2022-09-09T13:35:50;97204.44;;;30.61;37.82
22181;BME280;11256;50.830;12.834;2022-09-09T13:40:58;97196.06;;;30.88;36.31
22181;BME280;11256;50.830;12.834;2022-09-09T13:51:38;97200.19;;;30.80;35.52
22181;BME280;11256;50.830;12.834;2022-09-09T13:56:40;97190.97;;;31.06;35.02
22181;BME280;11256;50.830;12.834;2022-09-09T14:01:41;97187.19;;;31.16;34.71
22181;BME280;11256;50.830;12.834;2022-09-09T14:06:42;97178.53;;;31.07;34.81
22181;BME280;11256;50.830;12.834;2022-09-09T14:11:44;97175.72;;;31.07;36.14
22181;BME280;11256;50.830;12.834;2022-09-09T14:16:48;97172.19;;;31.03;36.74
22181;BME280;11256;50.830;12.834;2022-09-09T14:21:48;97189.25;;;31.35;34.77
22181;BME280;11256;50.830;12.834;2022-09-09T14:26:48;97197.13;;;31.20;35.36
22181;BME280;11256;50.830;12.834;2022-09-09T14:31:49;97181.13;;;31.17;35.93
22181;BME280;11256;50.830;12.834;2022-09-09T14:36:49;97180.00;;;31.38;34.97
22181;BME280;11256;50.830;12.834;2022-09-09T14:41:50;97168.25;;;31.23;35.04
22181;BME280;11256;50.830;12.834;2022-09-09T14:46:50;97186.94;;;31.07;34.99
22181;BME280;11256;50.830;12.834;2022-09-09T14:51:51;97198.50;;;30.86;35.42
22181;BME280;11256;50.830;12.834;2022-09-09T14:56:51;97210.66;;;30.76;36.96
22181;BME280;11256;50.830;12.834;2022-09-09T15:01:52;97216.44;;;30.62;36.94
22181;BME280;11256;50.830;12.834;2022-09-09T15:06:53;97212.09;;;30.31;36.95
22181;BME280;11256;50.830;12.834;2022-09-09T15:11:54;97217.19;;;30.09;37.22
22181;BME280;11256;50.830;12.834;2022-09-09T15:16:54;97215.88;;;29.84;37.24
22181;BME280;11256;50.830;12.834;2022-09-09T15:21:55;97207.38;;;29.61;37.26
22181;BME280;11256;50.830;12.834;2022-09-09T15:26:55;97220.41;;;29.34;37.45
22181;BME280;11256;50.830;12.834;2022-09-09T15:31:56;97218.69;;;29.06;37.68
22181;BME280;11256;50.830;12.834;2022-09-09T15:36:57;97217.56;;;28.90;37.40
22181;BME280;11256;50.830;12.834;2022-09-09T15:41:57;97221.75;;;28.64;37.96
22181;BME280;11256;50.830;12.834;2022-09-09T15:46:57;97221.50;;;28.45;37.80
22181;BME280;11256;50.830;12.834;2022-09-09T15:51:59;97213.22;;;28.24;38.88
22181;BME280;11256;50.830;12.834;2022-09-09T15:57:04;97206.88;;;28.20;40.62
22181;BME280;11256;50.830;12.834;2022-09-09T16:02:05;97190.25;;;28.02;42.15
22181;BME280;11256;50.830;12.834;2022-09-09T16:07:05;97197.88;;;27.95;41.17
22181;BME280;11256;50.830;12.834;2022-09-09T16:12:06;97201.88;;;27.76;41.20
22181;BME280;11256;50.830;12.834;2022-09-09T16:17:06;97209.50;;;27.62;40.93
22181;BME280;11256;50.830;12.834;2022-09-09T16:22:07;97201.59;;;27.39;41.35
22181;BME280;11256;50.830;12.834;2022-09-09T16:27:08;97215.16;;;27.20;41.53
22181;BME280;11256;50.830;12.834;2022-09-09T16:32:08;97209.59;;;26.95;41.07
22181;BME280;11256;50.830;12.834;2022-09-09T16:37:09;97221.50;;;26.64;41.36
22181;BME280;11256;50.830;12.834;2022-09-09T16:42:11;97229.00;;;26.50;41.55
22181;BME280;11256;50.830;12.834;2022-09-09T16:47:11;97231.75;;;26.36;42.17
22181;BME280;11256;50.830;12.834;2022-09-09T16:52:11;97228.50;;;26.06;42.34
22181;BME280;11256;50.830;12.834;2022-09-09T16:57:12;97236.41;;;25.97;42.36
22181;BME280;11256;50.830;12.834;2022-09-09T17:02:12;97237.91;;;25.84;42.30
22181;BME280;11256;50.830;12.834;2022-09-09T17:07:12;97234.63;;;25.61;42.79
22181;BME280;11256;50.830;12.834;2022-09-09T17:12:13;97228.97;;;25.43;42.73
22181;BME280;11256;50.830;12.834;2022-09-09T17:17:13;97224.44;;;25.18;42.73
22181;BME280;11256;50.830;12.834;2022-09-09T17:22:13;97237.06;;;25.12;42.18
22181;BME280;11256;50.830;12.834;2022-09-09T17:27:14;97230.59;;;24.94;42.87
22181;BME280;11256;50.830;12.834;2022-09-09T17:32:14;97219.78;;;24.78;43.27
22181;BME280;11256;50.830;12.834;2022-09-09T17:37:15;97235.53;;;24.67;43.33
22181;BME280;11256;50.830;12.834;2022-09-09T17:42:15;97233.75;;;24.52;43.40
22181;BME280;11256;50.830;12.834;2022-09-09T17:47:15;97228.06;;;24.35;43.47
22181;BME280;11256;50.830;12.834;2022-09-09T17:52:16;97228.31;;;24.23;43.83
22181;BME280;11256;50.830;12.834;2022-09-09T17:57:16;97220.66;;;24.09;44.04
22181;BME280;11256;50.830;12.834;2022-09-09T18:02:22;97228.00;;;23.95;43.92
22181;BME280;11256;50.830;12.834;2022-09-09T18:07:22;97217.97;;;23.83;43.94
22181;BME280;11256;50.830;12.834;2022-09-09T18:12:23;97225.72;;;23.71;44.06
22181;BME280;11256;50.830;12.834;2022-09-09T18:17:24;97233.41;;;23.55;44.29
22181;BME280;11256;50.830;12.834;2022-09-09T18:22:24;97251.47;;;23.45;44.42
22181;BME280;11256;50.830;12.834;2022-09-09T18:27:24;97248.53;;;23.35;44.48
22181;BME280;11256;50.830;12.834;2022-09-09T18:32:25;97247.63;;;23.27;44.62
22181;BME280;11256;50.830;12.834;2022-09-09T18:37:26;97247.78;;;23.12;44.55
22181;BME280;11256;50.830;12.834;2022-09-09T18:42:26;97244.38;;;22.96;44.77
22181;BME280;11256;50.830;12.834;2022-09-09T18:47:26;97252.41;;;22.82;44.83
22181;BME280;11256;50.830;12.834;2022-09-09T18:52:27;97252.63;;;22.70;45.01
22181;BME280;11256;50.830;12.834;2022-09-09T18:57:27;97244.56;;;22.61;45.36
22181;BME280;11256;50.830;12.834;2022-09-09T19:02:27;97260.13;;;22.47;45.54
22181;BME280;11256;50.830;12.834;2022-09-09T19:07:29;97273.41;;;22.41;45.34
22181;BME280;11256;50.830;12.834;2022-09-09T19:12:29;97273.13;;;22.27;45.59
22181;BME280;11256;50.830;12.834;2022-09-09T19:17:30;97279.59;;;22.16;45.84
22181;BME280;11256;50.830;12.834;2022-09-09T19:22:31;97292.47;;;22.08;45.93
22181;BME280;11256;50.830;12.834;2022-09-09T19:27:32;97296.19;;;21.97;45.85
22181;BME280;11256;50.830;12.834;2022-09-09T19:32:32;97298.81;;;21.90;46.10
22181;BME280;11256;50.830;12.834;2022-09-09T19:37:32;97301.41;;;21.83;46.34
22181;BME280;11256;50.830;12.834;2022-09-09T19:42:33;97309.19;;;21.77;46.36
22181;BME280;11256;50.830;12.834;2022-09-09T19:47:33;97301.97;;;21.73;46.45
22181;BME280;11256;50.830;12.834;2022-09-09T19:52:34;97301.91;;;21.69;46.29
22181;BME280;11256;50.830;12.834;2022-09-09T19:57:34;97303.31;;;21.63;46.54
22181;BME280;11256;50.830;12.834;2022-09-09T20:02:34;97297.56;;;21.53;46.46
22181;BME280;11256;50.830;12.834;2022-09-09T20:07:35;97294.94;;;21.41;46.90
22181;BME280;11256;50.830;12.834;2022-09-09T20:12:35;97327.22;;;21.40;46.82
22181;BME280;11256;50.830;12.834;2022-09-09T20:17:35;97327.69;;;21.27;47.06
22181;BME280;11256;50.830;12.834;2022-09-09T20:22:36;97312.66;;;21.24;47.38
22181;BME280;11256;50.830;12.834;2022-09-09T20:27:36;97320.31;;;21.15;47.38
22181;BME280;11256;50.830;12.834;2022-09-09T20:32:36;97324.41;;;21.06;47.39
22181;BME280;11256;50.830;12.834;2022-09-09T20:37:39;97331.72;;;20.98;47.95
22181;BME280;11256;50.830;12.834;2022-09-09T20:42:39;97333.38;;;20.87;47.97
22181;BME280;11256;50.830;12.834;2022-09-09T20:47:40;97328.75;;;20.76;48.12
22181;BME280;11256;50.830;12.834;2022-09-09T20:52:40;97330.88;;;20.67;48.60
22181;BME280;11256;50.830;12.834;2022-09-09T20:57:41;97342.97;;;20.62;49.03
22181;BME280;11256;50.830;12.834;2022-09-09T21:02:41;97337.63;;;20.54;49.99
22181;BME280;11256;50.830;12.834;2022-09-09T21:07:41;97341.56;;;20.41;49.35
22181;BME280;11256;50.830;12.834;2022-09-09T21:12:42;97342.47;;;20.29;49.87
22181;BME280;11256;50.830;12.834;2022-09-09T21:17:42;97338.69;;;20.22;49.76
22181;BME280;11256;50.830;12.834;2022-09-09T21:22:43;97324.94;;;20.22;49.74
22181;BME280;11256;50.830;12.834;2022-09-09T21:27:43;97327.94;;;20.17;49.98
22181;BME280;11256;50.830;12.834;2022-09-09T21:32:43;97321.44;;;20.09;49.99
22181;BME280;11256;50.830;12.834;2022-09-09T21:37:43;97323.03;;;20.10;50.08
22181;BME280;11256;50.830;12.834;2022-09-09T21:42:44;97321.44;;;20.09;50.19
22181;BME280;11256;50.830;12.834;2022-09-09T21:47:45;97334.03;;;20.10;50.20
22181;BME280;11256;50.830;12.834;2022-09-09T21:52:46;97334.38;;;20.09;50.21
22181;BME280;11256;50.830;12.834;2022-09-09T21:57:46;97328.13;;;19.96;50.45
22181;BME280;11256;50.830;12.834;2022-09-09T22:02:47;97327.09;;;19.89;50.61
22181;BME280;11256;50.830;12.834;2022-09-09T22:07:47;97337.28;;;19.88;51.04
22181;BME280;11256;50.830;12.834;2022-09-09T22:12:48;97334.00;;;19.83;50.68
22181;BME280;11256;50.830;12.834;2022-09-09T22:17:48;97326.00;;;19.78;51.06
22181;BME280;11256;50.830;12.834;2022-09-09T22:22:49;97322.78;;;19.76;51.23
22181;BME280;11256;50.830;12.834;2022-09-09T22:27:49;97330.59;;;19.74;51.35
22181;BME280;11256;50.830;12.834;2022-09-09T22:32:49;97321.66;;;19.65;51.28
22181;BME280;11256;50.830;12.834;2022-09-09T22:37:50;97327.16;;;19.65;51.38
22181;BME280;11256;50.830;12.834;2022-09-09T22:42:51;97337.28;;;19.61;51.81
22181;BME280;11256;50.830;12.834;2022-09-09T22:47:51;97330.28;;;19.51;51.85
22181;BME280;11256;50.830;12.834;2022-09-09T22:52:51;97319.41;;;19.43;52.10
22181;BME280;11256;50.830;12.834;2022-09-09T22:57:52;97305.03;;;19.34;52.27
22181;BME280;11256;50.830;12.834;2022-09-09T23:02:52;97306.38;;;19.28;52.57
22181;BME280;11256;50.830;12.834;2022-09-09T23:07:53;97301.34;;;19.18;52.78
22181;BME280;11256;50.830;12.834;2022-09-09T23:12:57;97300.88;;;19.04;52.92
22181;BME280;11256;50.830;12.834;2022-09-09T23:17:57;97298.34;;;18.99;53.50
22181;BME280;11256;50.830;12.834;2022-09-09T23:22:58;97302.16;;;18.94;53.44
22181;BME280;11256;50.830;12.834;2022-09-09T23:28:00;97317.81;;;18.94;52.97
22181;BME280;11256;50.830;12.834;2022-09-09T23:33:00;97319.06;;;18.84;53.33
22181;BME280;11256;50.830;12.834;2022-09-09T23:38:01;97301.13;;;18.75;53.42
22181;BME280;11256;50.830;12.834;2022-09-09T23:43:01;97306.13;;;18.73;53.59
22181;BME280;11256;50.830;12.834;2022-09-09T23:48:03;97302.69;;;18.64;53.73
22181;BME280;11256;50.830;12.834;2022-09-09T23:53:03;97306.34;;;18.56;53.84
22181;BME280;11256;50.830;12.834;2022-09-09T23:58:03;97306.09;;;18.49;54.14
